sensor_id;sensor_type;location;lat;lon;timestamp;temperature;humidity
52415;DHT22;38340;52.964;6.086;2023-02-15T00:01:46;-0.20;99.90
52415;DHT22;38340;52.964;6.086;2023-02-15T00:04:15;-0.20;99.90
52415;DHT22;38340;52.964;6.086;2023-02-15T00:06:41;-0.20;99.90
52415;DHT22;38340;52.964;6.086;2023-02-15T00:09:07;-0.30;99.90
52415;DHT22;38340;52.964;6.086;2023-02-15T00:11:33;-0.20;99.90
52415;DHT22;38340;52.964;6.086;2023-02-15T00:14:13;-0.20;99.90
52415;DHT22;38340;52.964;6.086;2023-02-15T00:16:40;-0.10;99.90
52415;DHT22;38340;52.964;6.086;2023-02-15T00:19:07;-0.10;99.90
52415;DHT22;38340;52.964;6.086;2023-02-15T00:21:35;-0.20;99.90
52415;DHT22;38340;52.964;6.086;2023-02-15T00:24:02;-0.30;99.90
52415;DHT22;38340;52.964;6.086;2023-02-15T00:26:28;-0.40;99.90
52415;DHT22;38340;52.964;6.086;2023-02-15T00:28:55;-0.40;99.90
52415;DHT22;38340;52.964;6.086;2023-02-15T00:31:21;-0.40;99.90
52415;DHT22;38340;52.964;6.086;2023-02-15T00:33:47;-0.40;99.90
52415;DHT22;38340;52.964;6.086;2023-02-15T00:36:13;-0.30;99.90
52415;DHT22;38340;52.964;6.086;2023-02-15T00:38:39;-0.40;99.90
52415;DHT22;38340;52.964;6.086;2023-02-15T00:41:06;-0.50;99.90
52415;DHT22;38340;52.964;6.086;2023-02-15T00:43:33;-0.60;99.90
52415;DHT22;38340;52.964;6.086;2023-02-15T00:46:00;-0.60;99.90
52415;DHT22;38340;52.964;6.086;2023-02-15T00:48:26;-0.60;99.90
52415;DHT22;38340;52.964;6.086;2023-02-15T00:50:54;-0.60;99.90
52415;DHT22;38340;52.964;6.086;2023-02-15T00:53:21;-0.60;99.90
52415;DHT22;38340;52.964;6.086;2023-02-15T00:55:47;-0.60;99.90
52415;DHT22;38340;52.964;6.086;2023-02-15T00:58:14;-0.60;99.90
52415;DHT22;38340;52.964;6.086;2023-02-15T01:00:42;-0.60;99.90
52415;DHT22;38340;52.964;6.086;2023-02-15T01:03:08;-0.60;99.90
52415;DHT22;38340;52.964;6.086;2023-02-15T01:05:34;-0.70;99.90
52415;DHT22;38340;52.964;6.086;2023-02-15T01:08:00;-0.70;99.90
52415;DHT22;38340;52.964;6.086;2023-02-15T01:10:27;-0.60;99.90
52415;DHT22;38340;52.964;6.086;2023-02-15T01:12:53;-0.60;99.90
52415;DHT22;38340;52.964;6.086;2023-02-15T01:15:19;-0.50;99.90
52415;DHT22;38340;52.964;6.086;2023-02-15T01:17:45;-0.50;99.90
52415;DHT22;38340;52.964;6.086;2023-02-15T01:20:21;-0.50;99.90
52415;DHT22;38340;52.964;6.086;2023-02-15T01:22:47;-0.50;99.90
52415;DHT22;38340;52.964;6.086;2023-02-15T01:25:19;-0.50;99.90
52415;DHT22;38340;52.964;6.086;2023-02-15T01:27:45;-0.40;99.90
52415;DHT22;38340;52.964;6.086;2023-02-15T01:30:12;-0.40;99.90
52415;DHT22;38340;52.964;6.086;2023-02-15T01:32:39;-0.40;99.90
52415;DHT22;38340;52.964;6.086;2023-02-15T01:35:05;-0.40;99.90
52415;DHT22;38340;52.964;6.086;2023-02-15T01:37:31;-0.50;99.90
52415;DHT22;38340;52.964;6.086;2023-02-15T01:39:57;-0.50;99.90
52415;DHT22;38340;52.964;6.086;2023-02-15T01:42:27;-0.50;99.90
52415;DHT22;38340;52.964;6.086;2023-02-15T01:44:56;-0.50;99.90
52415;DHT22;38340;52.964;6.086;2023-02-15T01:47:44;-0.50;99.90
52415;DHT22;38340;52.964;6.086;2023-02-15T01:50:41;-0.50;99.90
52415;DHT22;38340;52.964;6.086;2023-02-15T01:53:08;-0.50;99.90
52415;DHT22;38340;52.964;6.086;2023-02-15T01:55:45;-0.50;99.90
52415;DHT22;38340;52.964;6.086;2023-02-15T01:58:12;-0.50;99.90
52415;DHT22;38340;52.964;6.086;2023-02-15T02:00:39;-0.50;99.90
52415;DHT22;38340;52.964;6.086;2023-02-15T02:03:05;-0.60;99.90
52415;DHT22;38340;52.964;6.086;2023-02-15T02:05:32;-0.50;99.90
52415;DHT22;38340;52.964;6.086;2023-02-15T02:08:00;-0.50;99.90
52415;DHT22;38340;52.964;6.086;2023-02-15T02:10:26;-0.50;99.90
52415;DHT22;38340;52.964;6.086;2023-02-15T02:12:58;-0.60;99.90
52415;DHT22;38340;52.964;6.086;2023-02-15T02:40:03;-0.60;99.90
52415;DHT22;38340;52.964;6.086;2023-02-15T02:42:38;-0.70;99.90
52415;DHT22;38340;52.964;6.086;2023-02-15T02:45:15;-0.70;99.90
52415;DHT22;38340;52.964;6.086;2023-02-15T02:47:49;-0.70;99.90
52415;DHT22;38340;52.964;6.086;2023-02-15T02:50:22;-0.70;99.90
52415;DHT22;38340;52.964;6.086;2023-02-15T02:52:52;-0.70;99.90
52415;DHT22;38340;52.964;6.086;2023-02-15T02:57:57;-0.80;99.90
52415;DHT22;38340;52.964;6.086;2023-02-15T03:00:25;-0.80;99.90
52415;DHT22;38340;52.964;6.086;2023-02-15T03:02:59;-0.80;99.90
52415;DHT22;38340;52.964;6.086;2023-02-15T03:05:31;-0.80;99.90
52415;DHT22;38340;52.964;6.086;2023-02-15T03:07:58;-0.80;99.90
52415;DHT22;38340;52.964;6.086;2023-02-15T03:10:27;-0.80;99.90
52415;DHT22;38340;52.964;6.086;2023-02-15T03:12:55;-0.80;99.90
52415;DHT22;38340;52.964;6.086;2023-02-15T03:15:24;-0.80;99.90
52415;DHT22;38340;52.964;6.086;2023-02-15T03:17:57;-0.80;99.90
52415;DHT22;38340;52.964;6.086;2023-02-15T03:20:28;-0.80;99.90
52415;DHT22;38340;52.964;6.086;2023-02-15T03:22:58;-0.90;99.90
52415;DHT22;38340;52.964;6.086;2023-02-15T03:25:35;-0.90;99.90
52415;DHT22;38340;52.964;6.086;2023-02-15T03:28:11;-0.90;99.90
52415;DHT22;38340;52.964;6.086;2023-02-15T03:30:40;-1.00;99.90
52415;DHT22;38340;52.964;6.086;2023-02-15T03:33:07;-1.10;99.90
52415;DHT22;38340;52.964;6.086;2023-02-15T03:36:26;-1.10;99.90
52415;DHT22;38340;52.964;6.086;2023-02-15T03:38:42;-1.20;99.90
52415;DHT22;38340;52.964;6.086;2023-02-15T03:41:10;-1.10;99.90
52415;DHT22;38340;52.964;6.086;2023-02-15T03:43:53;-1.10;99.90
52415;DHT22;38340;52.964;6.086;2023-02-15T03:46:55;-1.20;99.90
52415;DHT22;38340;52.964;6.086;2023-02-15T03:49:30;-1.10;99.90
52415;DHT22;38340;52.964;6.086;2023-02-15T03:51:58;-1.20;99.90
52415;DHT22;38340;52.964;6.086;2023-02-15T03:54:29;-1.20;99.90
52415;DHT22;38340;52.964;6.086;2023-02-15T04:00:00;-1.20;99.90
52415;DHT22;38340;52.964;6.086;2023-02-15T04:03:05;-1.20;99.90
52415;DHT22;38340;52.964;6.086;2023-02-15T04:05:33;-1.20;99.90
52415;DHT22;38340;52.964;6.086;2023-02-15T04:07:59;-1.30;99.90
52415;DHT22;38340;52.964;6.086;2023-02-15T04:10:24;-1.30;99.90
52415;DHT22;38340;52.964;6.086;2023-02-15T04:13:09;-1.30;99.90
52415;DHT22;38340;52.964;6.086;2023-02-15T04:15:34;-1.30;99.90
52415;DHT22;38340;52.964;6.086;2023-02-15T04:18:18;-1.30;99.90
52415;DHT22;38340;52.964;6.086;2023-02-15T04:20:45;-1.30;99.90
52415;DHT22;38340;52.964;6.086;2023-02-15T04:23:29;-1.30;99.90
52415;DHT22;38340;52.964;6.086;2023-02-15T04:26:13;-1.30;99.90
52415;DHT22;38340;52.964;6.086;2023-02-15T04:28:39;-1.30;99.90
52415;DHT22;38340;52.964;6.086;2023-02-15T04:31:05;-1.30;99.90
52415;DHT22;38340;52.964;6.086;2023-02-15T04:33:30;-1.30;99.90
52415;DHT22;38340;52.964;6.086;2023-02-15T04:35:56;-1.30;99.90
52415;DHT22;38340;52.964;6.086;2023-02-15T04:38:22;-1.30;99.90
52415;DHT22;38340;52.964;6.086;2023-02-15T04:40:52;-1.20;99.90
52415;DHT22;38340;52.964;6.086;2023-02-15T04:43:18;-1.20;99.90
52415;DHT22;38340;52.964;6.086;2023-02-15T04:45:50;-1.30;99.90
52415;DHT22;38340;52.964;6.086;2023-02-15T04:48:17;-1.30;99.90
52415;DHT22;38340;52.964;6.086;2023-02-15T04:50:44;-1.30;99.90
52415;DHT22;38340;52.964;6.086;2023-02-15T04:53:10;-1.30;99.90
52415;DHT22;38340;52.964;6.086;2023-02-15T04:55:36;-1.30;99.90
52415;DHT22;38340;52.964;6.086;2023-02-15T04:58:01;-1.20;99.90
52415;DHT22;38340;52.964;6.086;2023-02-15T05:00:27;-1.20;99.90
52415;DHT22;38340;52.964;6.086;2023-02-15T05:02:53;-1.20;99.90
52415;DHT22;38340;52.964;6.086;2023-02-15T05:05:19;-1.20;99.90
52415;DHT22;38340;52.964;6.086;2023-02-15T05:07:44;-1.10;99.90
52415;DHT22;38340;52.964;6.086;2023-02-15T05:10:10;-1.10;99.90
52415;DHT22;38340;52.964;6.086;2023-02-15T05:12:36;-1.10;99.90
52415;DHT22;38340;52.964;6.086;2023-02-15T05:15:02;-1.00;99.90
52415;DHT22;38340;52.964;6.086;2023-02-15T05:17:27;-1.00;99.90
52415;DHT22;38340;52.964;6.086;2023-02-15T05:19:53;-1.00;99.90
52415;DHT22;38340;52.964;6.086;2023-02-15T05:22:19;-0.90;99.90
52415;DHT22;38340;52.964;6.086;2023-02-15T05:24:44;-0.90;99.90
52415;DHT22;38340;52.964;6.086;2023-02-15T05:27:29;-0.90;99.90
52415;DHT22;38340;52.964;6.086;2023-02-15T05:30:13;-0.90;99.90
52415;DHT22;38340;52.964;6.086;2023-02-15T05:32:39;-0.90;99.90
52415;DHT22;38340;52.964;6.086;2023-02-15T05:35:06;-0.90;99.90
52415;DHT22;38340;52.964;6.086;2023-02-15T05:37:32;-0.90;99.90
52415;DHT22;38340;52.964;6.086;2023-02-15T05:39:57;-0.90;99.90
52415;DHT22;38340;52.964;6.086;2023-02-15T05:42:23;-0.90;99.90
52415;DHT22;38340;52.964;6.086;2023-02-15T05:44:49;-0.90;99.90
52415;DHT22;38340;52.964;6.086;2023-02-15T05:47:14;-0.80;99.90
52415;DHT22;38340;52.964;6.086;2023-02-15T05:49:40;-0.80;99.90
52415;DHT22;38340;52.964;6.086;2023-02-15T05:52:06;-0.80;99.90
52415;DHT22;38340;52.964;6.086;2023-02-15T05:54:31;-0.70;99.90
52415;DHT22;38340;52.964;6.086;2023-02-15T05:56:57;-0.70;99.90
52415;DHT22;38340;52.964;6.086;2023-02-15T05:59:23;-0.60;99.90
52415;DHT22;38340;52.964;6.086;2023-02-15T06:01:48;-0.70;99.90
52415;DHT22;38340;52.964;6.086;2023-02-15T06:04:14;-0.70;99.90
52415;DHT22;38340;52.964;6.086;2023-02-15T06:06:40;-0.70;99.90
52415;DHT22;38340;52.964;6.086;2023-02-15T06:09:05;-0.70;99.90
52415;DHT22;38340;52.964;6.086;2023-02-15T06:11:31;-0.70;99.90
52415;DHT22;38340;52.964;6.086;2023-02-15T06:13:57;-0.80;99.90
52415;DHT22;38340;52.964;6.086;2023-02-15T06:16:22;-0.70;99.90
52415;DHT22;38340;52.964;6.086;2023-02-15T06:18:48;-0.80;99.90
52415;DHT22;38340;52.964;6.086;2023-02-15T06:21:14;-0.80;99.90
52415;DHT22;38340;52.964;6.086;2023-02-15T06:23:39;-0.70;99.90
52415;DHT22;38340;52.964;6.086;2023-02-15T06:26:06;-0.70;99.90
52415;DHT22;38340;52.964;6.086;2023-02-15T06:28:31;-0.60;99.90
52415;DHT22;38340;52.964;6.086;2023-02-15T06:30:57;-0.60;99.90
52415;DHT22;38340;52.964;6.086;2023-02-15T06:33:23;-0.60;99.90
52415;DHT22;38340;52.964;6.086;2023-02-15T06:35:49;-0.70;99.90
52415;DHT22;38340;52.964;6.086;2023-02-15T06:38:14;-0.60;99.90
52415;DHT22;38340;52.964;6.086;2023-02-15T06:40:40;-0.60;99.90
52415;DHT22;38340;52.964;6.086;2023-02-15T06:43:06;-0.60;99.90
52415;DHT22;38340;52.964;6.086;2023-02-15T06:45:31;-0.50;99.90
52415;DHT22;38340;52.964;6.086;2023-02-15T06:47:57;-0.60;99.90
52415;DHT22;38340;52.964;6.086;2023-02-15T06:50:23;-0.60;99.90
52415;DHT22;38340;52.964;6.086;2023-02-15T06:52:49;-0.70;99.90
52415;DHT22;38340;52.964;6.086;2023-02-15T06:55:14;-0.70;99.90
52415;DHT22;38340;52.964;6.086;2023-02-15T06:57:40;-0.70;99.90
52415;DHT22;38340;52.964;6.086;2023-02-15T07:00:07;-0.70;99.90
52415;DHT22;38340;52.964;6.086;2023-02-15T07:02:33;-0.70;99.90
52415;DHT22;38340;52.964;6.086;2023-02-15T07:04:59;-0.70;99.90
52415;DHT22;38340;52.964;6.086;2023-02-15T07:07:25;-0.80;99.90
52415;DHT22;38340;52.964;6.086;2023-02-15T07:09:50;-0.80;99.90
52415;DHT22;38340;52.964;6.086;2023-02-15T07:12:16;-0.80;99.90
52415;DHT22;38340;52.964;6.086;2023-02-15T07:15:01;-0.80;99.90
52415;DHT22;38340;52.964;6.086;2023-02-15T07:17:27;-0.70;99.90
52415;DHT22;38340;52.964;6.086;2023-02-15T07:19:54;-0.60;99.90
52415;DHT22;38340;52.964;6.086;2023-02-15T07:22:20;-0.60;99.90
52415;DHT22;38340;52.964;6.086;2023-02-15T07:24:45;-0.50;99.90
52415;DHT22;38340;52.964;6.086;2023-02-15T07:27:11;-0.40;99.90
52415;DHT22;38340;52.964;6.086;2023-02-15T07:29:37;-0.30;99.90
52415;DHT22;38340;52.964;6.086;2023-02-15T07:32:02;-0.10;99.90
52415;DHT22;38340;52.964;6.086;2023-02-15T07:34:28;0.00;99.90
52415;DHT22;38340;52.964;6.086;2023-02-15T07:36:54;0.10;99.90
52415;DHT22;38340;52.964;6.086;2023-02-15T07:39:20;0.40;99.90
52415;DHT22;38340;52.964;6.086;2023-02-15T07:41:45;0.50;99.90
52415;DHT22;38340;52.964;6.086;2023-02-15T07:44:15;0.60;99.90
52415;DHT22;38340;52.964;6.086;2023-02-15T07:46:41;0.70;99.90
52415;DHT22;38340;52.964;6.086;2023-02-15T07:49:06;0.90;99.90
52415;DHT22;38340;52.964;6.086;2023-02-15T07:51:32;1.00;99.90
52415;DHT22;38340;52.964;6.086;2023-02-15T07:53:58;1.10;99.90
52415;DHT22;38340;52.964;6.086;2023-02-15T07:56:24;1.10;99.90
52415;DHT22;38340;52.964;6.086;2023-02-15T07:58:49;1.20;99.90
52415;DHT22;38340;52.964;6.086;2023-02-15T08:01:20;1.20;99.90
52415;DHT22;38340;52.964;6.086;2023-02-15T08:03:46;1.20;99.90
52415;DHT22;38340;52.964;6.086;2023-02-15T08:06:12;1.20;99.90
52415;DHT22;38340;52.964;6.086;2023-02-15T08:08:39;1.20;99.90
52415;DHT22;38340;52.964;6.086;2023-02-15T08:11:21;1.20;99.90
52415;DHT22;38340;52.964;6.086;2023-02-15T08:14:07;1.20;99.90
52415;DHT22;38340;52.964;6.086;2023-02-15T08:16:40;1.30;99.90
52415;DHT22;38340;52.964;6.086;2023-02-15T08:19:20;1.30;99.90
52415;DHT22;38340;52.964;6.086;2023-02-15T08:21:48;1.30;99.90
52415;DHT22;38340;52.964;6.086;2023-02-15T08:24:16;1.30;99.90
52415;DHT22;38340;52.964;6.086;2023-02-15T08:26:43;1.30;99.90
52415;DHT22;38340;52.964;6.086;2023-02-15T08:29:12;1.40;99.90
52415;DHT22;38340;52.964;6.086;2023-02-15T08:31:38;1.40;99.90
52415;DHT22;38340;52.964;6.086;2023-02-15T08:34:07;1.50;99.90
52415;DHT22;38340;52.964;6.086;2023-02-15T08:36:33;1.60;99.90
52415;DHT22;38340;52.964;6.086;2023-02-15T08:39:00;1.70;99.90
52415;DHT22;38340;52.964;6.086;2023-02-15T08:41:28;1.70;99.90
52415;DHT22;38340;52.964;6.086;2023-02-15T08:43:56;1.90;99.90
52415;DHT22;38340;52.964;6.086;2023-02-15T08:46:24;1.80;99.90
52415;DHT22;38340;52.964;6.086;2023-02-15T08:48:50;1.90;99.90
52415;DHT22;38340;52.964;6.086;2023-02-15T08:51:18;2.00;99.90
52415;DHT22;38340;52.964;6.086;2023-02-15T08:53:46;2.00;99.90
52415;DHT22;38340;52.964;6.086;2023-02-15T08:56:15;2.10;99.90
52415;DHT22;38340;52.964;6.086;2023-02-15T08:58:41;2.20;99.90
52415;DHT22;38340;52.964;6.086;2023-02-15T09:01:18;2.20;99.90
52415;DHT22;38340;52.964;6.086;2023-02-15T09:03:47;2.30;99.90
52415;DHT22;38340;52.964;6.086;2023-02-15T09:06:14;2.40;99.90
52415;DHT22;38340;52.964;6.086;2023-02-15T09:08:40;2.50;99.90
52415;DHT22;38340;52.964;6.086;2023-02-15T09:13:55;2.70;99.90
52415;DHT22;38340;52.964;6.086;2023-02-15T09:16:22;2.90;99.90
52415;DHT22;38340;52.964;6.086;2023-02-15T09:18:50;3.00;99.90
52415;DHT22;38340;52.964;6.086;2023-02-15T09:21:19;3.10;99.90
52415;DHT22;38340;52.964;6.086;2023-02-15T09:23:48;3.30;99.90
52415;DHT22;38340;52.964;6.086;2023-02-15T09:26:16;3.40;99.90
52415;DHT22;38340;52.964;6.086;2023-02-15T09:28:42;3.50;99.90
52415;DHT22;38340;52.964;6.086;2023-02-15T09:33:35;3.70;99.90
52415;DHT22;38340;52.964;6.086;2023-02-15T09:36:02;3.80;99.90
52415;DHT22;38340;52.964;6.086;2023-02-15T09:38:28;3.90;99.90
52415;DHT22;38340;52.964;6.086;2023-02-15T09:41:26;4.00;99.90
52415;DHT22;38340;52.964;6.086;2023-02-15T09:44:06;4.10;99.90
52415;DHT22;38340;52.964;6.086;2023-02-15T09:50:01;4.40;99.90
52415;DHT22;38340;52.964;6.086;2023-02-15T10:01:38;4.80;99.90
52415;DHT22;38340;52.964;6.086;2023-02-15T10:20:34;5.20;99.90
52415;DHT22;38340;52.964;6.086;2023-02-15T10:28:18;5.50;99.90
52415;DHT22;38340;52.964;6.086;2023-02-15T10:36:57;5.80;99.90
52415;DHT22;38340;52.964;6.086;2023-02-15T10:39:22;5.90;99.90
52415;DHT22;38340;52.964;6.086;2023-02-15T10:48:10;6.30;99.90
52415;DHT22;38340;52.964;6.086;2023-02-15T10:58:42;6.80;99.90
52415;DHT22;38340;52.964;6.086;2023-02-15T11:01:37;6.80;99.90
52415;DHT22;38340;52.964;6.086;2023-02-15T11:04:35;6.90;99.90
52415;DHT22;38340;52.964;6.086;2023-02-15T11:07:12;7.10;99.90
52415;DHT22;38340;52.964;6.086;2023-02-15T11:09:51;7.20;99.90
52415;DHT22;38340;52.964;6.086;2023-02-15T11:12:23;7.30;99.90
52415;DHT22;38340;52.964;6.086;2023-02-15T11:14:55;7.40;99.90
52415;DHT22;38340;52.964;6.086;2023-02-15T11:17:25;7.50;99.90
52415;DHT22;38340;52.964;6.086;2023-02-15T11:20:16;7.70;99.90
52415;DHT22;38340;52.964;6.086;2023-02-15T11:22:48;7.70;99.90
52415;DHT22;38340;52.964;6.086;2023-02-15T11:25:18;7.80;99.90
52415;DHT22;38340;52.964;6.086;2023-02-15T11:27:47;7.90;99.90
52415;DHT22;38340;52.964;6.086;2023-02-15T11:30:22;8.00;99.90
52415;DHT22;38340;52.964;6.086;2023-02-15T11:32:51;8.10;99.90
52415;DHT22;38340;52.964;6.086;2023-02-15T11:37:59;8.20;99.90
52415;DHT22;38340;52.964;6.086;2023-02-15T11:40:32;8.40;28.80
52415;DHT22;38340;52.964;6.086;2023-02-15T11:43:11;8.50;99.90
52415;DHT22;38340;52.964;6.086;2023-02-15T11:45:41;8.60;99.90
52415;DHT22;38340;52.964;6.086;2023-02-15T11:48:13;8.70;1.00
52415;DHT22;38340;52.964;6.086;2023-02-15T11:50:41;8.70;1.00
52415;DHT22;38340;52.964;6.086;2023-02-15T11:53:13;8.80;1.00
52415;DHT22;38340;52.964;6.086;2023-02-15T11:55:39;8.80;1.00
52415;DHT22;38340;52.964;6.086;2023-02-15T11:58:29;8.90;1.00
52415;DHT22;38340;52.964;6.086;2023-02-15T12:03:42;8.80;99.90
52415;DHT22;38340;52.964;6.086;2023-02-15T12:08:53;8.70;1.00
52415;DHT22;38340;52.964;6.086;2023-02-15T12:11:28;8.70;49.30
52415;DHT22;38340;52.964;6.086;2023-02-15T12:14:06;8.70;1.00
52415;DHT22;38340;52.964;6.086;2023-02-15T12:16:46;8.80;1.00
52415;DHT22;38340;52.964;6.086;2023-02-15T12:21:59;9.00;99.00
52415;DHT22;38340;52.964;6.086;2023-02-15T12:24:29;9.00;1.00
52415;DHT22;38340;52.964;6.086;2023-02-15T12:27:16;9.00;20.50
52415;DHT22;38340;52.964;6.086;2023-02-15T12:29:47;9.10;1.00
52415;DHT22;38340;52.964;6.086;2023-02-15T12:32:28;9.10;1.00
52415;DHT22;38340;52.964;6.086;2023-02-15T12:35:09;9.10;4.30
52415;DHT22;38340;52.964;6.086;2023-02-15T12:37:38;9.10;1.00
52415;DHT22;38340;52.964;6.086;2023-02-15T12:40:27;9.00;97.30
52415;DHT22;38340;52.964;6.086;2023-02-15T12:42:54;9.00;99.90
52415;DHT22;38340;52.964;6.086;2023-02-15T12:45:30;9.00;80.40
52415;DHT22;38340;52.964;6.086;2023-02-15T12:48:18;9.00;24.50
52415;DHT22;38340;52.964;6.086;2023-02-15T12:50:50;9.10;99.90
52415;DHT22;38340;52.964;6.086;2023-02-15T12:53:34;9.10;99.90
52415;DHT22;38340;52.964;6.086;2023-02-15T12:56:07;9.10;99.90
52415;DHT22;38340;52.964;6.086;2023-02-15T12:58:40;9.20;99.90
52415;DHT22;38340;52.964;6.086;2023-02-15T13:01:11;9.20;1.00
52415;DHT22;38340;52.964;6.086;2023-02-15T13:06:23;9.40;91.70
52415;DHT22;38340;52.964;6.086;2023-02-15T13:08:51;9.50;13.80
52415;DHT22;38340;52.964;6.086;2023-02-15T13:11:29;9.50;1.00
52415;DHT22;38340;52.964;6.086;2023-02-15T13:14:31;9.60;1.00
52415;DHT22;38340;52.964;6.086;2023-02-15T13:16:56;9.50;51.30
52415;DHT22;38340;52.964;6.086;2023-02-15T13:19:34;9.60;99.90
52415;DHT22;38340;52.964;6.086;2023-02-15T13:22:08;9.60;99.90
52415;DHT22;38340;52.964;6.086;2023-02-15T13:24:58;9.70;99.90
52415;DHT22;38340;52.964;6.086;2023-02-15T13:27:33;9.70;1.00
52415;DHT22;38340;52.964;6.086;2023-02-15T13:30:08;9.70;1.00
52415;DHT22;38340;52.964;6.086;2023-02-15T13:32:38;9.70;1.00
52415;DHT22;38340;52.964;6.086;2023-02-15T13:35:14;9.80;99.90
52415;DHT22;38340;52.964;6.086;2023-02-15T13:43:10;10.00;99.90
52415;DHT22;38340;52.964;6.086;2023-02-15T13:46:21;10.00;99.90
52415;DHT22;38340;52.964;6.086;2023-02-15T13:49:05;10.10;99.90
52415;DHT22;38340;52.964;6.086;2023-02-15T14:00:26;10.20;99.90
52415;DHT22;38340;52.964;6.086;2023-02-15T14:03:59;10.20;99.90
52415;DHT22;38340;52.964;6.086;2023-02-15T14:19:52;10.20;99.90
52415;DHT22;38340;52.964;6.086;2023-02-15T14:22:35;10.10;99.90
52415;DHT22;38340;52.964;6.086;2023-02-15T14:25:24;10.10;99.90
52415;DHT22;38340;52.964;6.086;2023-02-15T14:30:32;10.10;99.90
52415;DHT22;38340;52.964;6.086;2023-02-15T14:33:08;10.10;99.90
52415;DHT22;38340;52.964;6.086;2023-02-15T14:35:42;10.00;99.90
52415;DHT22;38340;52.964;6.086;2023-02-15T14:38:36;10.00;1.00
52415;DHT22;38340;52.964;6.086;2023-02-15T14:46:31;10.10;99.70
52415;DHT22;38340;52.964;6.086;2023-02-15T14:56:41;9.90;99.90
52415;DHT22;38340;52.964;6.086;2023-02-15T14:59:18;9.90;99.90
52415;DHT22;38340;52.964;6.086;2023-02-15T15:04:37;9.80;99.90
52415;DHT22;38340;52.964;6.086;2023-02-15T15:09:40;9.70;99.90
52415;DHT22;38340;52.964;6.086;2023-02-15T15:12:37;9.70;99.90
52415;DHT22;38340;52.964;6.086;2023-02-15T15:15:01;9.60;99.90
52415;DHT22;38340;52.964;6.086;2023-02-15T15:25:53;9.40;1.00
52415;DHT22;38340;52.964;6.086;2023-02-15T15:34:20;9.30;1.00
52415;DHT22;38340;52.964;6.086;2023-02-15T15:48:36;9.00;45.20
52415;DHT22;38340;52.964;6.086;2023-02-15T15:51:25;8.90;77.70
52415;DHT22;38340;52.964;6.086;2023-02-15T15:53:53;8.90;90.30
52415;DHT22;38340;52.964;6.086;2023-02-15T15:56:54;8.80;99.90
52415;DHT22;38340;52.964;6.086;2023-02-15T15:59:28;8.80;96.80
52415;DHT22;38340;52.964;6.086;2023-02-15T16:01:55;8.70;99.90
52415;DHT22;38340;52.964;6.086;2023-02-15T16:04:32;8.60;99.90
52415;DHT22;38340;52.964;6.086;2023-02-15T16:09:55;8.50;99.90
52415;DHT22;38340;52.964;6.086;2023-02-15T16:12:21;8.40;99.90
52415;DHT22;38340;52.964;6.086;2023-02-15T16:14:47;8.40;99.90
52415;DHT22;38340;52.964;6.086;2023-02-15T16:17:24;8.30;99.90
52415;DHT22;38340;52.964;6.086;2023-02-15T16:19:53;8.30;99.90
52415;DHT22;38340;52.964;6.086;2023-02-15T16:22:25;8.20;99.90
52415;DHT22;38340;52.964;6.086;2023-02-15T16:29:55;8.00;99.90
52415;DHT22;38340;52.964;6.086;2023-02-15T16:32:22;7.90;99.90
52415;DHT22;38340;52.964;6.086;2023-02-15T16:35:17;7.80;99.90
52415;DHT22;38340;52.964;6.086;2023-02-15T16:37:44;7.80;99.90
52415;DHT22;38340;52.964;6.086;2023-02-15T16:40:50;7.70;99.90
52415;DHT22;38340;52.964;6.086;2023-02-15T16:43:21;7.60;99.90
52415;DHT22;38340;52.964;6.086;2023-02-15T16:45:48;7.50;99.90
52415;DHT22;38340;52.964;6.086;2023-02-15T16:48:21;7.50;99.90
52415;DHT22;38340;52.964;6.086;2023-02-15T16:50:50;7.50;99.90
52415;DHT22;38340;52.964;6.086;2023-02-15T16:53:20;7.40;99.90
52415;DHT22;38340;52.964;6.086;2023-02-15T16:55:54;7.30;99.90
52415;DHT22;38340;52.964;6.086;2023-02-15T16:58:36;7.30;99.90
52415;DHT22;38340;52.964;6.086;2023-02-15T17:01:03;7.20;99.90
52415;DHT22;38340;52.964;6.086;2023-02-15T17:03:31;7.20;99.90
52415;DHT22;38340;52.964;6.086;2023-02-15T17:06:01;7.10;99.90
52415;DHT22;38340;52.964;6.086;2023-02-15T17:08:42;7.10;99.90
52415;DHT22;38340;52.964;6.086;2023-02-15T17:11:20;7.00;99.90
52415;DHT22;38340;52.964;6.086;2023-02-15T17:14:10;7.00;99.90
52415;DHT22;38340;52.964;6.086;2023-02-15T17:16:50;6.90;99.90
52415;DHT22;38340;52.964;6.086;2023-02-15T17:19:23;6.90;99.90
52415;DHT22;38340;52.964;6.086;2023-02-15T17:21:53;6.80;99.90
52415;DHT22;38340;52.964;6.086;2023-02-15T17:24:35;6.80;99.90
52415;DHT22;38340;52.964;6.086;2023-02-15T17:27:27;6.70;1.00
52415;DHT22;38340;52.964;6.086;2023-02-15T17:29:56;6.80;1.00
52415;DHT22;38340;52.964;6.086;2023-02-15T17:32:24;6.80;1.00
52415;DHT22;38340;52.964;6.086;2023-02-15T17:35:08;6.70;1.00
52415;DHT22;38340;52.964;6.086;2023-02-15T17:42:43;6.60;1.00
52415;DHT22;38340;52.964;6.086;2023-02-15T17:45:08;6.60;1.00
52415;DHT22;38340;52.964;6.086;2023-02-15T17:47:34;6.50;1.00
52415;DHT22;38340;52.964;6.086;2023-02-15T17:50:04;6.50;1.00
52415;DHT22;38340;52.964;6.086;2023-02-15T17:52:30;6.40;1.00
52415;DHT22;38340;52.964;6.086;2023-02-15T17:54:56;6.40;1.00
52415;DHT22;38340;52.964;6.086;2023-02-15T17:57:41;6.40;1.00
52415;DHT22;38340;52.964;6.086;2023-02-15T18:00:07;6.40;1.00
52415;DHT22;38340;52.964;6.086;2023-02-15T18:02:52;6.40;1.00
52415;DHT22;38340;52.964;6.086;2023-02-15T18:05:37;6.30;1.00
52415;DHT22;38340;52.964;6.086;2023-02-15T18:08:26;6.40;1.00
52415;DHT22;38340;52.964;6.086;2023-02-15T18:11:11;6.40;1.00
52415;DHT22;38340;52.964;6.086;2023-02-15T18:13:55;6.40;1.00
52415;DHT22;38340;52.964;6.086;2023-02-15T18:16:32;6.40;1.00
52415;DHT22;38340;52.964;6.086;2023-02-15T18:18:58;6.40;1.00
52415;DHT22;38340;52.964;6.086;2023-02-15T18:21:24;6.40;1.00
52415;DHT22;38340;52.964;6.086;2023-02-15T18:23:50;6.40;1.00
52415;DHT22;38340;52.964;6.086;2023-02-15T18:26:21;6.40;1.00
52415;DHT22;38340;52.964;6.086;2023-02-15T18:28:48;6.40;1.00
52415;DHT22;38340;52.964;6.086;2023-02-15T18:31:14;6.30;1.00
52415;DHT22;38340;52.964;6.086;2023-02-15T18:33:46;6.30;1.00
52415;DHT22;38340;52.964;6.086;2023-02-15T18:36:19;6.30;1.00
52415;DHT22;38340;52.964;6.086;2023-02-15T18:38:45;6.30;1.00
52415;DHT22;38340;52.964;6.086;2023-02-15T18:41:16;6.20;1.00
52415;DHT22;38340;52.964;6.086;2023-02-15T18:43:43;6.20;1.00
52415;DHT22;38340;52.964;6.086;2023-02-15T18:46:09;6.20;1.00
52415;DHT22;38340;52.964;6.086;2023-02-15T18:48:34;6.10;1.00
52415;DHT22;38340;52.964;6.086;2023-02-15T18:51:00;6.10;1.00
52415;DHT22;38340;52.964;6.086;2023-02-15T18:53:26;6.10;1.00
52415;DHT22;38340;52.964;6.086;2023-02-15T18:55:52;6.00;1.00
52415;DHT22;38340;52.964;6.086;2023-02-15T18:58:19;5.90;1.00
52415;DHT22;38340;52.964;6.086;2023-02-15T19:00:46;5.90;1.00
52415;DHT22;38340;52.964;6.086;2023-02-15T19:03:14;5.90;1.00
52415;DHT22;38340;52.964;6.086;2023-02-15T19:05:45;5.80;1.00
52415;DHT22;38340;52.964;6.086;2023-02-15T19:08:17;5.80;1.00
52415;DHT22;38340;52.964;6.086;2023-02-15T19:10:43;5.80;1.00
52415;DHT22;38340;52.964;6.086;2023-02-15T19:13:11;5.80;1.00
52415;DHT22;38340;52.964;6.086;2023-02-15T19:15:37;5.70;1.00
52415;DHT22;38340;52.964;6.086;2023-02-15T19:18:03;5.70;1.00
52415;DHT22;38340;52.964;6.086;2023-02-15T19:20:35;5.70;1.00